sensor_id;sensor_type;location;lat;lon;timestamp;temperature;humidity
67901;DHT22;54700;51.796;10.956;2023-03-26T00:00:04;8.20;81.60
67901;DHT22;54700;51.796;10.956;2023-03-26T00:02:33;8.20;82.00
67901;DHT22;54700;51.796;10.956;2023-03-26T00:05:06;8.20;80.90
67901;DHT22;54700;51.796;10.956;2023-03-26T00:07:39;8.30;79.30
67901;DHT22;54700;51.796;10.956;2023-03-26T00:10:06;8.30;78.70
67901;DHT22;54700;51.796;10.956;2023-03-26T00:12:34;8.30;78.30
67901;DHT22;54700;51.796;10.956;2023-03-26T00:15:01;8.30;79.00
67901;DHT22;54700;51.796;10.956;2023-03-26T00:17:34;8.30;78.40
67901;DHT22;54700;51.796;10.956;2023-03-26T00:20:02;8.30;79.00
67901;DHT22;54700;51.796;10.956;2023-03-26T00:22:30;8.30;79.40
67901;DHT22;54700;51.796;10.956;2023-03-26T00:24:58;8.30;79.00
67901;DHT22;54700;51.796;10.956;2023-03-26T00:27:25;8.30;78.30
67901;DHT22;54700;51.796;10.956;2023-03-26T00:29:54;8.30;79.10
67901;DHT22;54700;51.796;10.956;2023-03-26T00:32:21;8.30;81.60
67901;DHT22;54700;51.796;10.956;2023-03-26T00:34:52;8.20;83.30
67901;DHT22;54700;51.796;10.956;2023-03-26T00:37:19;8.10;87.00
67901;DHT22;54700;51.796;10.956;2023-03-26T00:39:52;8.00;89.10
67901;DHT22;54700;51.796;10.956;2023-03-26T00:42:23;7.90;89.70
67901;DHT22;54700;51.796;10.956;2023-03-26T00:44:54;7.80;90.70
67901;DHT22;54700;51.796;10.956;2023-03-26T00:47:22;7.80;90.70
67901;DHT22;54700;51.796;10.956;2023-03-26T00:49:49;7.70;90.80
67901;DHT22;54700;51.796;10.956;2023-03-26T00:52:16;7.70;91.80
67901;DHT22;54700;51.796;10.956;2023-03-26T00:54:44;7.70;91.70
67901;DHT22;54700;51.796;10.956;2023-03-26T00:57:12;7.60;91.00
67901;DHT22;54700;51.796;10.956;2023-03-26T00:59:40;7.60;91.50
67901;DHT22;54700;51.796;10.956;2023-03-26T01:02:09;7.60;91.70
67901;DHT22;54700;51.796;10.956;2023-03-26T01:04:41;7.60;91.70
67901;DHT22;54700;51.796;10.956;2023-03-26T01:07:12;7.60;92.00
67901;DHT22;54700;51.796;10.956;2023-03-26T01:09:44;7.60;92.10
67901;DHT22;54700;51.796;10.956;2023-03-26T01:12:16;7.60;92.00
67901;DHT22;54700;51.796;10.956;2023-03-26T01:14:50;7.60;91.90
67901;DHT22;54700;51.796;10.956;2023-03-26T01:17:21;7.60;91.80
67901;DHT22;54700;51.796;10.956;2023-03-26T01:20:00;7.60;91.50
67901;DHT22;54700;51.796;10.956;2023-03-26T01:22:37;7.60;91.00
67901;DHT22;54700;51.796;10.956;2023-03-26T01:25:09;7.70;90.10
67901;DHT22;54700;51.796;10.956;2023-03-26T01:27:37;7.70;89.60
67901;DHT22;54700;51.796;10.956;2023-03-26T01:30:09;7.80;89.60
67901;DHT22;54700;51.796;10.956;2023-03-26T01:32:46;7.80;89.70
67901;DHT22;54700;51.796;10.956;2023-03-26T01:35:21;7.90;89.70
67901;DHT22;54700;51.796;10.956;2023-03-26T01:40:49;8.00;88.60
67901;DHT22;54700;51.796;10.956;2023-03-26T01:43:27;8.00;87.00
67901;DHT22;54700;51.796;10.956;2023-03-26T01:45:58;8.00;88.60
67901;DHT22;54700;51.796;10.956;2023-03-26T01:48:30;8.00;90.60
67901;DHT22;54700;51.796;10.956;2023-03-26T01:51:01;8.00;92.20
67901;DHT22;54700;51.796;10.956;2023-03-26T01:53:32;7.90;92.00
67901;DHT22;54700;51.796;10.956;2023-03-26T01:56:07;7.90;92.40
67901;DHT22;54700;51.796;10.956;2023-03-26T01:58:44;7.80;92.70
67901;DHT22;54700;51.796;10.956;2023-03-26T02:01:28;7.80;92.30
67901;DHT22;54700;51.796;10.956;2023-03-26T02:04:07;7.70;92.10
67901;DHT22;54700;51.796;10.956;2023-03-26T02:06:47;7.70;91.40
67901;DHT22;54700;51.796;10.956;2023-03-26T02:09:23;7.80;90.40
67901;DHT22;54700;51.796;10.956;2023-03-26T02:11:55;7.80;88.60
67901;DHT22;54700;51.796;10.956;2023-03-26T02:14:32;7.90;89.30
67901;DHT22;54700;51.796;10.956;2023-03-26T02:17:01;7.90;89.30
67901;DHT22;54700;51.796;10.956;2023-03-26T02:19:28;7.90;89.60
67901;DHT22;54700;51.796;10.956;2023-03-26T02:21:57;7.90;89.90
67901;DHT22;54700;51.796;10.956;2023-03-26T02:24:25;7.80;89.90
67901;DHT22;54700;51.796;10.956;2023-03-26T02:26:52;7.80;90.10
67901;DHT22;54700;51.796;10.956;2023-03-26T02:29:28;7.80;90.40
67901;DHT22;54700;51.796;10.956;2023-03-26T02:31:55;7.80;90.40
67901;DHT22;54700;51.796;10.956;2023-03-26T02:34:26;7.90;90.40
67901;DHT22;54700;51.796;10.956;2023-03-26T02:36:53;7.90;90.20
67901;DHT22;54700;51.796;10.956;2023-03-26T02:39:24;7.90;89.40
67901;DHT22;54700;51.796;10.956;2023-03-26T02:41:52;7.90;88.30
67901;DHT22;54700;51.796;10.956;2023-03-26T02:44:19;7.90;88.10
67901;DHT22;54700;51.796;10.956;2023-03-26T02:46:47;7.90;88.10
67901;DHT22;54700;51.796;10.956;2023-03-26T02:49:14;7.90;86.00
67901;DHT22;54700;51.796;10.956;2023-03-26T02:51:42;7.90;85.70
67901;DHT22;54700;51.796;10.956;2023-03-26T02:54:09;7.90;86.20
67901;DHT22;54700;51.796;10.956;2023-03-26T02:56:40;7.90;83.40
67901;DHT22;54700;51.796;10.956;2023-03-26T02:59:16;7.90;83.30
67901;DHT22;54700;51.796;10.956;2023-03-26T03:01:43;7.90;83.80
67901;DHT22;54700;51.796;10.956;2023-03-26T03:04:17;7.80;83.70
67901;DHT22;54700;51.796;10.956;2023-03-26T03:06:57;7.80;84.60
67901;DHT22;54700;51.796;10.956;2023-03-26T03:09:26;7.70;84.50
67901;DHT22;54700;51.796;10.956;2023-03-26T03:11:53;7.70;83.40
67901;DHT22;54700;51.796;10.956;2023-03-26T03:14:20;7.80;83.10
67901;DHT22;54700;51.796;10.956;2023-03-26T03:16:49;7.70;82.80
67901;DHT22;54700;51.796;10.956;2023-03-26T03:19:23;7.70;83.20
67901;DHT22;54700;51.796;10.956;2023-03-26T03:21:50;7.70;83.30
67901;DHT22;54700;51.796;10.956;2023-03-26T03:24:21;7.70;82.90
67901;DHT22;54700;51.796;10.956;2023-03-26T03:26:48;7.70;82.10
67901;DHT22;54700;51.796;10.956;2023-03-26T03:29:22;7.70;81.60
67901;DHT22;54700;51.796;10.956;2023-03-26T03:31:51;7.70;82.10
67901;DHT22;54700;51.796;10.956;2023-03-26T03:34:21;7.70;83.00
67901;DHT22;54700;51.796;10.956;2023-03-26T03:37:00;7.70;83.90
67901;DHT22;54700;51.796;10.956;2023-03-26T03:39:29;7.70;85.90
67901;DHT22;54700;51.796;10.956;2023-03-26T03:42:05;7.70;85.90
67901;DHT22;54700;51.796;10.956;2023-03-26T03:44:38;7.70;87.00
67901;DHT22;54700;51.796;10.956;2023-03-26T03:47:07;7.70;88.20
67901;DHT22;54700;51.796;10.956;2023-03-26T03:49:46;7.70;88.60
67901;DHT22;54700;51.796;10.956;2023-03-26T03:52:18;7.60;88.20
67901;DHT22;54700;51.796;10.956;2023-03-26T03:54:52;7.70;88.60
67901;DHT22;54700;51.796;10.956;2023-03-26T03:57:22;7.70;88.60
67901;DHT22;54700;51.796;10.956;2023-03-26T03:59:54;7.70;88.90
67901;DHT22;54700;51.796;10.956;2023-03-26T04:02:26;7.70;89.20
67901;DHT22;54700;51.796;10.956;2023-03-26T04:05:02;7.70;89.10
67901;DHT22;54700;51.796;10.956;2023-03-26T04:07:32;7.70;88.60
67901;DHT22;54700;51.796;10.956;2023-03-26T04:10:03;7.70;88.80
67901;DHT22;54700;51.796;10.956;2023-03-26T04:12:36;7.80;89.10
67901;DHT22;54700;51.796;10.956;2023-03-26T04:15:03;7.80;89.40
67901;DHT22;54700;51.796;10.956;2023-03-26T04:17:31;7.80;89.20
67901;DHT22;54700;51.796;10.956;2023-03-26T04:20:09;7.80;89.40
67901;DHT22;54700;51.796;10.956;2023-03-26T04:22:39;7.70;89.90
67901;DHT22;54700;51.796;10.956;2023-03-26T04:25:18;7.70;89.60
67901;DHT22;54700;51.796;10.956;2023-03-26T04:27:47;7.70;89.40
67901;DHT22;54700;51.796;10.956;2023-03-26T04:30:14;7.70;88.00
67901;DHT22;54700;51.796;10.956;2023-03-26T04:32:47;7.70;87.30
67901;DHT22;54700;51.796;10.956;2023-03-26T04:35:15;7.80;87.30
67901;DHT22;54700;51.796;10.956;2023-03-26T04:37:43;7.70;87.00
67901;DHT22;54700;51.796;10.956;2023-03-26T04:40:13;7.70;86.20
67901;DHT22;54700;51.796;10.956;2023-03-26T04:42:41;7.80;85.40
67901;DHT22;54700;51.796;10.956;2023-03-26T04:45:10;7.70;85.50
67901;DHT22;54700;51.796;10.956;2023-03-26T04:47:38;7.80;85.70
67901;DHT22;54700;51.796;10.956;2023-03-26T04:50:09;7.80;85.30
67901;DHT22;54700;51.796;10.956;2023-03-26T04:52:41;7.80;85.80
67901;DHT22;54700;51.796;10.956;2023-03-26T04:55:11;7.80;86.00
67901;DHT22;54700;51.796;10.956;2023-03-26T04:57:48;7.80;87.30
67901;DHT22;54700;51.796;10.956;2023-03-26T05:00:19;7.80;90.10
67901;DHT22;54700;51.796;10.956;2023-03-26T05:02:46;7.70;91.40
67901;DHT22;54700;51.796;10.956;2023-03-26T05:05:15;7.70;92.10
67901;DHT22;54700;51.796;10.956;2023-03-26T05:07:44;7.60;93.10
67901;DHT22;54700;51.796;10.956;2023-03-26T05:10:11;7.50;93.90
67901;DHT22;54700;51.796;10.956;2023-03-26T05:12:44;7.50;94.70
67901;DHT22;54700;51.796;10.956;2023-03-26T05:15:14;7.50;95.10
67901;DHT22;54700;51.796;10.956;2023-03-26T05:17:41;7.50;95.80
67901;DHT22;54700;51.796;10.956;2023-03-26T05:20:13;7.40;96.10
67901;DHT22;54700;51.796;10.956;2023-03-26T05:22:46;7.40;96.10
67901;DHT22;54700;51.796;10.956;2023-03-26T05:25:15;7.40;96.30
67901;DHT22;54700;51.796;10.956;2023-03-26T05:27:42;7.40;96.40
67901;DHT22;54700;51.796;10.956;2023-03-26T05:30:11;7.40;96.60
67901;DHT22;54700;51.796;10.956;2023-03-26T05:32:42;7.40;96.40
67901;DHT22;54700;51.796;10.956;2023-03-26T05:35:13;7.40;96.30
67901;DHT22;54700;51.796;10.956;2023-03-26T05:37:41;7.40;96.80
67901;DHT22;54700;51.796;10.956;2023-03-26T05:40:11;7.50;96.40
67901;DHT22;54700;51.796;10.956;2023-03-26T05:42:43;7.50;96.00
67901;DHT22;54700;51.796;10.956;2023-03-26T05:45:11;7.50;96.00
67901;DHT22;54700;51.796;10.956;2023-03-26T05:47:41;7.50;95.70
67901;DHT22;54700;51.796;10.956;2023-03-26T05:50:09;7.50;95.40
67901;DHT22;54700;51.796;10.956;2023-03-26T05:52:37;7.60;94.90
67901;DHT22;54700;51.796;10.956;2023-03-26T05:55:04;7.60;94.80
67901;DHT22;54700;51.796;10.956;2023-03-26T05:57:33;7.60;94.30
67901;DHT22;54700;51.796;10.956;2023-03-26T06:00:06;7.60;94.20
67901;DHT22;54700;51.796;10.956;2023-03-26T06:02:37;7.70;94.00
67901;DHT22;54700;51.796;10.956;2023-03-26T06:05:06;7.70;93.50
67901;DHT22;54700;51.796;10.956;2023-03-26T06:07:37;7.70;93.30
67901;DHT22;54700;51.796;10.956;2023-03-26T06:10:06;7.70;92.70
67901;DHT22;54700;51.796;10.956;2023-03-26T06:12:37;7.80;92.70
67901;DHT22;54700;51.796;10.956;2023-03-26T06:15:06;7.80;92.40
67901;DHT22;54700;51.796;10.956;2023-03-26T06:17:33;7.80;92.30
67901;DHT22;54700;51.796;10.956;2023-03-26T06:20:00;7.90;91.30
67901;DHT22;54700;51.796;10.956;2023-03-26T06:22:30;8.00;90.20
67901;DHT22;54700;51.796;10.956;2023-03-26T06:24:57;8.10;88.90
67901;DHT22;54700;51.796;10.956;2023-03-26T06:27:27;8.10;89.00
67901;DHT22;54700;51.796;10.956;2023-03-26T06:29:57;8.10;90.10
67901;DHT22;54700;51.796;10.956;2023-03-26T06:32:25;8.10;91.10
67901;DHT22;54700;51.796;10.956;2023-03-26T06:34:52;8.00;91.50
67901;DHT22;54700;51.796;10.956;2023-03-26T06:37:19;8.10;92.00
67901;DHT22;54700;51.796;10.956;2023-03-26T06:39:46;8.10;93.10
67901;DHT22;54700;51.796;10.956;2023-03-26T06:42:16;8.20;93.10
67901;DHT22;54700;51.796;10.956;2023-03-26T06:44:43;8.20;92.90
67901;DHT22;54700;51.796;10.956;2023-03-26T06:47:16;8.30;93.00
67901;DHT22;54700;51.796;10.956;2023-03-26T06:49:43;8.40;93.10
67901;DHT22;54700;51.796;10.956;2023-03-26T06:52:10;8.40;93.10
67901;DHT22;54700;51.796;10.956;2023-03-26T06:54:38;8.40;93.50
67901;DHT22;54700;51.796;10.956;2023-03-26T06:57:05;8.40;93.60
67901;DHT22;54700;51.796;10.956;2023-03-26T06:59:35;8.40;93.50
67901;DHT22;54700;51.796;10.956;2023-03-26T07:02:02;8.50;93.20
67901;DHT22;54700;51.796;10.956;2023-03-26T07:04:31;8.60;93.00
67901;DHT22;54700;51.796;10.956;2023-03-26T07:07:02;8.70;92.90
67901;DHT22;54700;51.796;10.956;2023-03-26T07:09:30;8.70;92.80
67901;DHT22;54700;51.796;10.956;2023-03-26T07:12:05;8.80;92.60
67901;DHT22;54700;51.796;10.956;2023-03-26T07:14:37;8.80;92.50
67901;DHT22;54700;51.796;10.956;2023-03-26T07:17:04;8.80;92.20
67901;DHT22;54700;51.796;10.956;2023-03-26T07:19:51;8.90;92.40
67901;DHT22;54700;51.796;10.956;2023-03-26T07:22:20;8.90;91.70
67901;DHT22;54700;51.796;10.956;2023-03-26T07:24:51;8.90;90.60
67901;DHT22;54700;51.796;10.956;2023-03-26T07:27:22;8.90;90.10
67901;DHT22;54700;51.796;10.956;2023-03-26T07:30:08;8.90;90.30
67901;DHT22;54700;51.796;10.956;2023-03-26T07:32:44;8.90;90.90
67901;DHT22;54700;51.796;10.956;2023-03-26T07:35:20;9.00;91.50
67901;DHT22;54700;51.796;10.956;2023-03-26T07:38:00;8.90;91.50
67901;DHT22;54700;51.796;10.956;2023-03-26T07:40:49;8.90;92.10
67901;DHT22;54700;51.796;10.956;2023-03-26T07:43:30;8.90;92.60
67901;DHT22;54700;51.796;10.956;2023-03-26T07:46:06;8.90;92.40
67901;DHT22;54700;51.796;10.956;2023-03-26T07:48:38;8.90;92.70
67901;DHT22;54700;51.796;10.956;2023-03-26T07:51:08;8.80;93.10
67901;DHT22;54700;51.796;10.956;2023-03-26T07:53:37;8.80;93.30
67901;DHT22;54700;51.796;10.956;2023-03-26T07:56:05;8.90;93.20
67901;DHT22;54700;51.796;10.956;2023-03-26T07:58:41;8.90;92.80
67901;DHT22;54700;51.796;10.956;2023-03-26T08:01:22;8.90;92.30
67901;DHT22;54700;51.796;10.956;2023-03-26T08:04:03;8.90;92.10
67901;DHT22;54700;51.796;10.956;2023-03-26T08:06:46;8.90;92.50
67901;DHT22;54700;51.796;10.956;2023-03-26T08:09:21;8.90;92.90
67901;DHT22;54700;51.796;10.956;2023-03-26T08:11:56;8.90;92.30
67901;DHT22;54700;51.796;10.956;2023-03-26T08:14:36;8.90;92.20
67901;DHT22;54700;51.796;10.956;2023-03-26T08:17:18;8.90;92.40
67901;DHT22;54700;51.796;10.956;2023-03-26T08:20:02;9.00;91.90
67901;DHT22;54700;51.796;10.956;2023-03-26T08:22:43;9.10;91.40
67901;DHT22;54700;51.796;10.956;2023-03-26T08:25:17;9.10;91.80
67901;DHT22;54700;51.796;10.956;2023-03-26T08:28:09;9.20;91.20
67901;DHT22;54700;51.796;10.956;2023-03-26T08:30:46;9.20;90.70
67901;DHT22;54700;51.796;10.956;2023-03-26T08:33:13;9.30;90.80
67901;DHT22;54700;51.796;10.956;2023-03-26T08:35:43;9.30;90.40
67901;DHT22;54700;51.796;10.956;2023-03-26T08:38:12;9.30;89.30
67901;DHT22;54700;51.796;10.956;2023-03-26T08:40:45;9.20;90.40
67901;DHT22;54700;51.796;10.956;2023-03-26T08:43:44;9.20;90.50
67901;DHT22;54700;51.796;10.956;2023-03-26T08:46:41;9.20;91.20
67901;DHT22;54700;51.796;10.956;2023-03-26T08:49:40;9.30;91.10
67901;DHT22;54700;51.796;10.956;2023-03-26T08:52:33;9.40;91.50
67901;DHT22;54700;51.796;10.956;2023-03-26T08:58:17;9.60;90.90
67901;DHT22;54700;51.796;10.956;2023-03-26T09:01:20;9.80;90.30
67901;DHT22;54700;51.796;10.956;2023-03-26T09:04:36;10.10;89.60
67901;DHT22;54700;51.796;10.956;2023-03-26T09:10:51;10.40;85.00
67901;DHT22;54700;51.796;10.956;2023-03-26T09:22:27;10.30;88.10
67901;DHT22;54700;51.796;10.956;2023-03-26T09:25:29;10.30;83.80
67901;DHT22;54700;51.796;10.956;2023-03-26T09:28:40;10.10;77.90
67901;DHT22;54700;51.796;10.956;2023-03-26T09:31:50;10.00;78.50
67901;DHT22;54700;51.796;10.956;2023-03-26T09:34:48;10.00;78.30
67901;DHT22;54700;51.796;10.956;2023-03-26T09:37:44;10.00;80.20
67901;DHT22;54700;51.796;10.956;2023-03-26T09:40:23;10.10;81.40
67901;DHT22;54700;51.796;10.956;2023-03-26T09:43:03;10.20;81.10
67901;DHT22;54700;51.796;10.956;2023-03-26T09:45:54;10.10;78.70
67901;DHT22;54700;51.796;10.956;2023-03-26T09:51:37;10.20;83.40
67901;DHT22;54700;51.796;10.956;2023-03-26T09:54:31;10.30;85.20
67901;DHT22;54700;51.796;10.956;2023-03-26T09:57:25;10.40;90.20
67901;DHT22;54700;51.796;10.956;2023-03-26T10:00:17;10.60;85.50
67901;DHT22;54700;51.796;10.956;2023-03-26T10:02:57;10.50;83.90
67901;DHT22;54700;51.796;10.956;2023-03-26T10:05:40;10.70;84.60
67901;DHT22;54700;51.796;10.956;2023-03-26T10:08:31;10.70;84.80
67901;DHT22;54700;51.796;10.956;2023-03-26T10:11:11;10.80;86.80
67901;DHT22;54700;51.796;10.956;2023-03-26T10:16:44;10.80;88.10
67901;DHT22;54700;51.796;10.956;2023-03-26T10:22:24;10.70;89.40
67901;DHT22;54700;51.796;10.956;2023-03-26T10:25:04;10.70;88.80
67901;DHT22;54700;51.796;10.956;2023-03-26T10:27:58;10.70;87.00
67901;DHT22;54700;51.796;10.956;2023-03-26T10:30:51;10.80;85.20
67901;DHT22;54700;51.796;10.956;2023-03-26T10:33:38;11.00;84.40
67901;DHT22;54700;51.796;10.956;2023-03-26T10:36:29;11.20;83.60
67901;DHT22;54700;51.796;10.956;2023-03-26T10:39:06;11.20;79.90
67901;DHT22;54700;51.796;10.956;2023-03-26T10:41:48;11.30;79.50
67901;DHT22;54700;51.796;10.956;2023-03-26T10:44:29;11.40;78.60
67901;DHT22;54700;51.796;10.956;2023-03-26T10:53:28;11.50;76.30
67901;DHT22;54700;51.796;10.956;2023-03-26T10:56:01;11.60;76.70
67901;DHT22;54700;51.796;10.956;2023-03-26T10:58:47;11.60;72.60
67901;DHT22;54700;51.796;10.956;2023-03-26T11:01:16;11.60;73.10
67901;DHT22;54700;51.796;10.956;2023-03-26T11:03:49;11.60;71.70
67901;DHT22;54700;51.796;10.956;2023-03-26T11:06:25;11.60;69.40
67901;DHT22;54700;51.796;10.956;2023-03-26T11:09:02;11.70;67.80
67901;DHT22;54700;51.796;10.956;2023-03-26T11:11:37;11.80;67.40
67901;DHT22;54700;51.796;10.956;2023-03-26T11:14:13;11.90;68.00
67901;DHT22;54700;51.796;10.956;2023-03-26T11:16:48;12.00;66.90
67901;DHT22;54700;51.796;10.956;2023-03-26T11:19:23;12.10;66.00
67901;DHT22;54700;51.796;10.956;2023-03-26T11:22:02;12.20;65.40
67901;DHT22;54700;51.796;10.956;2023-03-26T11:24:47;12.20;66.70
67901;DHT22;54700;51.796;10.956;2023-03-26T11:27:48;12.30;66.30
67901;DHT22;54700;51.796;10.956;2023-03-26T11:30:27;12.30;65.70
67901;DHT22;54700;51.796;10.956;2023-03-26T11:33:01;12.30;64.60
67901;DHT22;54700;51.796;10.956;2023-03-26T11:35:32;12.20;64.80
67901;DHT22;54700;51.796;10.956;2023-03-26T11:38:05;12.20;64.10
67901;DHT22;54700;51.796;10.956;2023-03-26T11:40:40;12.20;62.80
67901;DHT22;54700;51.796;10.956;2023-03-26T11:43:15;12.10;63.70
67901;DHT22;54700;51.796;10.956;2023-03-26T11:45:46;12.10;63.80
67901;DHT22;54700;51.796;10.956;2023-03-26T11:48:16;12.10;63.10
67901;DHT22;54700;51.796;10.956;2023-03-26T11:50:49;12.10;63.30
67901;DHT22;54700;51.796;10.956;2023-03-26T11:53:24;12.10;63.90
67901;DHT22;54700;51.796;10.956;2023-03-26T11:56:02;12.10;63.60
67901;DHT22;54700;51.796;10.956;2023-03-26T11:58:35;12.10;63.50
67901;DHT22;54700;51.796;10.956;2023-03-26T12:01:11;12.20;63.40
67901;DHT22;54700;51.796;10.956;2023-03-26T12:03:42;12.30;62.50
67901;DHT22;54700;51.796;10.956;2023-03-26T12:06:22;12.40;62.10
67901;DHT22;54700;51.796;10.956;2023-03-26T12:08:51;12.30;65.50
67901;DHT22;54700;51.796;10.956;2023-03-26T12:11:21;12.10;71.10
67901;DHT22;54700;51.796;10.956;2023-03-26T12:13:52;11.80;72.20
67901;DHT22;54700;51.796;10.956;2023-03-26T12:16:23;11.50;74.90
67901;DHT22;54700;51.796;10.956;2023-03-26T12:18:58;11.30;77.00
67901;DHT22;54700;51.796;10.956;2023-03-26T12:21:28;11.10;78.00
67901;DHT22;54700;51.796;10.956;2023-03-26T12:23:59;11.00;79.40
67901;DHT22;54700;51.796;10.956;2023-03-26T12:26:37;10.90;81.30
67901;DHT22;54700;51.796;10.956;2023-03-26T12:29:09;10.80;85.10
67901;DHT22;54700;51.796;10.956;2023-03-26T12:31:47;10.70;89.10
67901;DHT22;54700;51.796;10.956;2023-03-26T12:34:18;10.60;90.60
67901;DHT22;54700;51.796;10.956;2023-03-26T12:36:48;10.50;90.00
67901;DHT22;54700;51.796;10.956;2023-03-26T12:39:30;10.30;87.50
67901;DHT22;54700;51.796;10.956;2023-03-26T12:42:14;10.10;90.10
67901;DHT22;54700;51.796;10.956;2023-03-26T12:44:51;10.00;91.20
67901;DHT22;54700;51.796;10.956;2023-03-26T12:47:22;9.60;92.60
67901;DHT22;54700;51.796;10.956;2023-03-26T12:49:52;9.40;93.70
67901;DHT22;54700;51.796;10.956;2023-03-26T12:52:25;9.40;93.90
67901;DHT22;54700;51.796;10.956;2023-03-26T12:55:07;9.30;94.30
67901;DHT22;54700;51.796;10.956;2023-03-26T12:57:52;9.20;95.50
67901;DHT22;54700;51.796;10.956;2023-03-26T13:00:28;9.00;98.10
67901;DHT22;54700;51.796;10.956;2023-03-26T13:06:09;8.70;99.90
67901;DHT22;54700;51.796;10.956;2023-03-26T13:08:57;8.60;99.90
67901;DHT22;54700;51.796;10.956;2023-03-26T13:11:56;8.60;99.90
67901;DHT22;54700;51.796;10.956;2023-03-26T13:17:44;8.70;99.90
67901;DHT22;54700;51.796;10.956;2023-03-26T13:20:21;8.70;99.90
67901;DHT22;54700;51.796;10.956;2023-03-26T13:22:55;8.70;99.90
67901;DHT22;54700;51.796;10.956;2023-03-26T13:25:32;8.60;99.90
67901;DHT22;54700;51.796;10.956;2023-03-26T13:28:11;8.60;99.90
67901;DHT22;54700;51.796;10.956;2023-03-26T13:30:56;8.60;99.90
67901;DHT22;54700;51.796;10.956;2023-03-26T13:33:41;8.50;99.90
67901;DHT22;54700;51.796;10.956;2023-03-26T13:36:25;8.50;99.90
67901;DHT22;54700;51.796;10.956;2023-03-26T13:39:08;8.40;99.90
67901;DHT22;54700;51.796;10.956;2023-03-26T13:41:54;8.30;99.90
67901;DHT22;54700;51.796;10.956;2023-03-26T13:44:45;8.30;99.90
67901;DHT22;54700;51.796;10.956;2023-03-26T13:47:32;8.20;99.90
67901;DHT22;54700;51.796;10.956;2023-03-26T13:50:06;8.20;99.90
67901;DHT22;54700;51.796;10.956;2023-03-26T13:52:50;8.20;99.90
67901;DHT22;54700;51.796;10.956;2023-03-26T13:55:24;8.20;99.90
67901;DHT22;54700;51.796;10.956;2023-03-26T13:57:57;8.20;99.90
67901;DHT22;54700;51.796;10.956;2023-03-26T14:00:29;8.20;99.90
67901;DHT22;54700;51.796;10.956;2023-03-26T14:03:14;8.30;99.90
67901;DHT22;54700;51.796;10.956;2023-03-26T14:05:49;8.30;99.90
67901;DHT22;54700;51.796;10.956;2023-03-26T14:08:21;8.40;99.90
67901;DHT22;54700;51.796;10.956;2023-03-26T14:10:54;8.40;99.90
67901;DHT22;54700;51.796;10.956;2023-03-26T14:13:25;8.40;99.90
67901;DHT22;54700;51.796;10.956;2023-03-26T14:16:00;8.40;99.90
67901;DHT22;54700;51.796;10.956;2023-03-26T14:18:34;8.40;99.90
67901;DHT22;54700;51.796;10.956;2023-03-26T14:21:11;8.50;99.90
67901;DHT22;54700;51.796;10.956;2023-03-26T14:23:57;8.50;99.90
67901;DHT22;54700;51.796;10.956;2023-03-26T14:26:45;8.50;99.90
67901;DHT22;54700;51.796;10.956;2023-03-26T14:29:27;8.50;99.90
67901;DHT22;54700;51.796;10.956;2023-03-26T14:32:19;8.50;99.90
67901;DHT22;54700;51.796;10.956;2023-03-26T14:35:01;8.40;99.90
67901;DHT22;54700;51.796;10.956;2023-03-26T14:37:53;8.40;99.90
67901;DHT22;54700;51.796;10.956;2023-03-26T14:40:55;8.40;99.90
67901;DHT22;54700;51.796;10.956;2023-03-26T14:43:40;8.40;99.90
67901;DHT22;54700;51.796;10.956;2023-03-26T14:46:25;8.40;99.90
67901;DHT22;54700;51.796;10.956;2023-03-26T14:49:13;8.50;99.90
67901;DHT22;54700;51.796;10.956;2023-03-26T14:51:57;8.40;99.90
67901;DHT22;54700;51.796;10.956;2023-03-26T14:54:36;8.40;99.90
67901;DHT22;54700;51.796;10.956;2023-03-26T14:57:26;8.40;99.90
67901;DHT22;54700;51.796;10.956;2023-03-26T15:00:26;8.40;99.90
67901;DHT22;54700;51.796;10.956;2023-03-26T15:03:20;8.40;99.90
67901;DHT22;54700;51.796;10.956;2023-03-26T15:09:37;8.40;99.90
67901;DHT22;54700;51.796;10.956;2023-03-26T15:12:40;8.30;99.90
67901;DHT22;54700;51.796;10.956;2023-03-26T15:15:26;8.30;99.90
67901;DHT22;54700;51.796;10.956;2023-03-26T15:18:24;8.20;99.90
67901;DHT22;54700;51.796;10.956;2023-03-26T15:24:27;8.10;99.90
67901;DHT22;54700;51.796;10.956;2023-03-26T15:33:42;7.90;99.90
67901;DHT22;54700;51.796;10.956;2023-03-26T15:36:38;7.80;99.90
67901;DHT22;54700;51.796;10.956;2023-03-26T15:39:39;7.70;99.90
67901;DHT22;54700;51.796;10.956;2023-03-26T15:42:13;7.70;99.90
67901;DHT22;54700;51.796;10.956;2023-03-26T15:44:49;7.70;99.90
67901;DHT22;54700;51.796;10.956;2023-03-26T15:50:20;7.70;99.90
67901;DHT22;54700;51.796;10.956;2023-03-26T15:52:59;7.80;99.90
67901;DHT22;54700;51.796;10.956;2023-03-26T15:55:37;7.80;99.90
67901;DHT22;54700;51.796;10.956;2023-03-26T15:58:11;7.80;99.90
67901;DHT22;54700;51.796;10.956;2023-03-26T16:00:47;7.80;99.90
67901;DHT22;54700;51.796;10.956;2023-03-26T16:03:25;7.80;99.90
67901;DHT22;54700;51.796;10.956;2023-03-26T16:08:53;7.80;99.90
67901;DHT22;54700;51.796;10.956;2023-03-26T16:11:43;7.90;99.90
67901;DHT22;54700;51.796;10.956;2023-03-26T16:14:16;7.90;99.90
67901;DHT22;54700;51.796;10.956;2023-03-26T16:16:47;7.90;99.90
67901;DHT22;54700;51.796;10.956;2023-03-26T16:19:33;7.90;99.90
67901;DHT22;54700;51.796;10.956;2023-03-26T16:22:12;7.80;99.90
67901;DHT22;54700;51.796;10.956;2023-03-26T16:25:11;7.80;99.90
67901;DHT22;54700;51.796;10.956;2023-03-26T16:27:58;7.80;99.90
67901;DHT22;54700;51.796;10.956;2023-03-26T16:30:41;7.80;99.90
67901;DHT22;54700;51.796;10.956;2023-03-26T16:33:13;7.70;99.90
67901;DHT22;54700;51.796;10.956;2023-03-26T16:35:58;7.60;99.90
67901;DHT22;54700;51.796;10.956;2023-03-26T16:38:52;7.60;99.90
67901;DHT22;54700;51.796;10.956;2023-03-26T16:41:28;7.70;99.90
67901;DHT22;54700;51.796;10.956;2023-03-26T16:44:03;7.70;99.90
67901;DHT22;54700;51.796;10.956;2023-03-26T16:46:41;7.70;99.90
67901;DHT22;54700;51.796;10.956;2023-03-26T16:49:20;7.70;99.90
67901;DHT22;54700;51.796;10.956;2023-03-26T16:52:01;7.70;99.90
67901;DHT22;54700;51.796;10.956;2023-03-26T16:54:38;7.70;99.90
67901;DHT22;54700;51.796;10.956;2023-03-26T16:57:18;7.70;99.90
67901;DHT22;54700;51.796;10.956;2023-03-26T17:00:04;7.70;99.90
67901;DHT22;54700;51.796;10.956;2023-03-26T17:03:01;7.70;99.90
67901;DHT22;54700;51.796;10.956;2023-03-26T17:05:42;7.70;99.90
67901;DHT22;54700;51.796;10.956;2023-03-26T17:08:28;7.70;99.90
67901;DHT22;54700;51.796;10.956;2023-03-26T17:11:08;7.60;99.90
67901;DHT22;54700;51.796;10.956;2023-03-26T17:13:49;7.60;99.90
67901;DHT22;54700;51.796;10.956;2023-03-26T17:16:31;7.60;99.90
67901;DHT22;54700;51.796;10.956;2023-03-26T17:19:06;7.50;99.90
67901;DHT22;54700;51.796;10.956;2023-03-26T17:21:45;7.50;99.90